Time;durP1;ratioP1;P1;durP2;ratioP2;P2;SDS_P1;SDS_P2;PMS_P1;PMS_P2;Temp;Humidity;BMP_temperature;BMP_pressure;BME280_temperature;BME280_humidity;BME280_pressure;Samples;Min_cycle;Max_cycle;Signal;HPM_P1;HPM_P2
2022/07/21 00:00:31;;;;;;;15.02;6.72;;;;;;;23.28;52.55;92965.09;4770806;30;20055;-76
2022/07/21 00:02:59;;;;;;;14.75;7.05;;;;;;;23.28;52.78;92967.75;4786866;30;20050;-76
2022/07/21 00:05:25;;;;;;;13.63;6.82;;;;;;;23.25;52.69;92963.13;4770307;29;20499;-76
2022/07/21 00:07:52;;;;;;;14.32;8.00;;;;;;;23.24;52.95;92966.94;4797900;29;20035;-76
2022/07/21 00:10:20;;;;;;;9.73;6.70;;;;;;;23.24;52.97;92961.59;4786337;29;20039;-76
2022/07/21 00:12:45;;;;;;;11.10;6.50;;;;;;;23.23;53.24;92960.81;4788519;29;20026;-76
2022/07/21 00:15:14;;;;;;;10.05;6.90;;;;;;;23.26;53.29;92959.34;4788169;29;20069;-77
2022/07/21 00:17:40;;;;;;;11.98;6.68;;;;;;;23.25;53.10;92961.22;4802520;29;20035;-76
2022/07/21 00:20:07;;;;;;;11.00;6.82;;;;;;;23.28;53.01;92957.88;4779206;30;20031;-76
2022/07/21 00:22:33;;;;;;;12.27;7.32;;;;;;;23.28;52.90;92957.06;4786548;30;20518;-76
2022/07/21 00:24:59;;;;;;;11.75;6.70;;;;;;;23.30;52.68;92960.16;4786430;30;20051;-76
2022/07/21 00:27:25;;;;;;;11.35;6.70;;;;;;;23.30;52.52;92962.84;4788495;29;20031;-76
2022/07/21 00:29:51;;;;;;;12.02;6.72;;;;;;;23.31;52.23;92956.38;4789698;29;20031;-76
2022/07/21 00:32:16;;;;;;;10.98;7.07;;;;;;;23.32;52.13;92960.59;4804295;29;20059;-76
2022/07/21 00:34:43;;;;;;;13.50;6.85;;;;;;;23.32;52.14;92957.16;4788140;29;20051;-76
2022/07/21 00:37:10;;;;;;;13.60;6.55;;;;;;;23.31;51.80;92956.38;4800099;29;20044;-77
2022/07/21 00:39:36;;;;;;;8.27;5.75;;;;;;;23.31;51.84;92956.38;4786330;30;20031;-76
2022/07/21 00:42:03;;;;;;;11.25;5.75;;;;;;;23.31;51.32;92951.03;4786520;29;20054;-76
2022/07/21 00:44:29;;;;;;;12.20;6.10;;;;;;;23.29;50.84;92958.63;4804017;29;20440;-76
2022/07/21 00:46:56;;;;;;;11.07;6.00;;;;;;;23.27;51.50;92956.31;4787871;29;20034;-76
2022/07/21 00:49:22;;;;;;;11.75;6.28;;;;;;;23.23;51.10;92958.13;4786673;29;20046;-76
2022/07/21 00:51:49;;;;;;;11.35;6.15;;;;;;;23.19;50.97;92956.53;4770244;30;20414;-76
2022/07/21 00:54:17;;;;;;;9.18;5.90;;;;;;;23.16;51.07;92965.25;4786404;29;20035;-76
2022/07/21 00:56:43;;;;;;;10.45;5.70;;;;;;;23.11;50.69;92963.66;4769796;30;20054;-77
2022/07/21 00:59:10;;;;;;;9.88;5.30;;;;;;;23.06;50.77;92962.03;4792520;29;20141;-76
2022/07/21 01:01:36;;;;;;;10.85;5.88;;;;;;;23.03;50.31;92954.75;4796939;29;20039;-76
2022/07/21 01:04:01;;;;;;;10.98;5.30;;;;;;;23.01;50.49;92959.66;4755061;30;20054;-77
2022/07/21 01:06:27;;;;;;;11.38;5.70;;;;;;;22.99;50.29;92953.06;4769254;30;20047;-76
2022/07/21 01:08:53;;;;;;;16.83;5.85;;;;;;;22.96;50.48;92941.19;4787369;29;20480;-76
2022/07/21 01:11:24;;;;;;;11.90;5.35;;;;;;;22.95;50.35;92938.91;4783753;29;20478;-77
2022/07/21 01:13:50;;;;;;;11.50;5.88;;;;;;;22.94;50.19;92943.44;4772843;29;20098;-76
2022/07/21 01:16:16;;;;;;;14.52;5.70;;;;;;;22.93;50.43;92941.91;4803624;29;20042;-76
2022/07/21 01:18:42;;;;;;;11.18;5.10;;;;;;;22.89;50.47;92934.97;4802955;29;20051;-76
2022/07/21 01:21:30;;;;;;;12.70;6.47;;;;;;;22.86;50.56;92931.88;4803422;29;20051;-76
2022/07/21 01:23:55;;;;;;;10.48;5.30;;;;;;;22.86;50.94;92939.88;4786895;29;20061;-76
2022/07/21 01:26:22;;;;;;;9.43;5.47;;;;;;;22.83;50.96;92931.78;4788369;29;20039;-76
2022/07/21 01:28:47;;;;;;;11.25;5.55;;;;;;;22.80;50.73;92935.94;4783458;29;20101;-76
2022/07/21 01:31:13;;;;;;;11.98;5.75;;;;;;;22.76;50.56;92937.00;4787261;29;20091;-76
2022/07/21 01:33:38;;;;;;;9.60;6.07;;;;;;;22.70;50.73;92936.50;4773640;30;20035;-76
2022/07/21 01:36:04;;;;;;;13.60;6.32;;;;;;;22.69;50.68;92944.88;4783712;29;20054;-76
2022/07/21 01:41:29;;;;;;;9.60;5.88;;;;;;;22.62;51.23;92938.25;4785346;30;20039;-76
2022/07/21 01:43:56;;;;;;;10.98;5.22;;;;;;;22.60;51.67;92929.81;4770817;30;20057;-76
2022/07/21 01:46:21;;;;;;;11.60;6.13;;;;;;;22.57;51.59;92929.78;4800360;29;20046;-76
2022/07/21 01:48:47;;;;;;;9.32;5.47;;;;;;;22.53;51.38;92934.25;4804034;29;20046;-76
2022/07/21 01:51:12;;;;;;;10.82;5.30;;;;;;;22.51;51.30;92926.59;4787458;29;20428;-76
2022/07/21 01:53:39;;;;;;;11.60;5.47;;;;;;;22.48;51.34;92932.63;4769461;30;20062;-76
2022/07/21 01:56:06;;;;;;;10.27;5.65;;;;;;;22.48;51.20;92932.63;4785375;29;20533;-76
2022/07/21 01:58:32;;;;;;;12.70;5.47;;;;;;;22.49;51.05;92923.50;4785780;30;20462;-76
2022/07/21 02:00:58;;;;;;;11.80;5.40;;;;;;;22.50;50.34;92926.97;4769557;30;20055;-76
2022/07/21 02:03:24;;;;;;;11.25;5.20;;;;;;;22.49;50.32;92926.16;4769590;29;20047;-76
2022/07/21 02:05:49;;;;;;;9.07;4.95;;;;;;;22.48;50.41;92929.97;4770697;29;20533;-76
2022/07/21 02:08:15;;;;;;;9.90;5.35;;;;;;;22.46;50.00;92926.88;4785924;29;20074;-76
2022/07/21 02:10:40;;;;;;;9.32;5.20;;;;;;;22.45;49.98;92926.09;4769400;30;20048;-76
2022/07/21 02:13:06;;;;;;;13.82;4.80;;;;;;;22.43;49.92;92920.34;4785400;30;20085;-77
2022/07/21 02:15:32;;;;;;;10.43;5.30;;;;;;;22.43;50.36;92922.25;4770745;30;20039;-76
2022/07/21 02:17:59;;;;;;;9.68;5.18;;;;;;;22.39;50.18;92924.06;4772324;29;20039;-76
2022/07/21 02:20:25;;;;;;;9.07;4.97;;;;;;;22.36;49.97;92922.06;4803447;29;20058;-76
2022/07/21 02:22:52;;;;;;;10.05;5.13;;;;;;;22.34;49.93;92924.34;4806581;29;20426;-76
2022/07/21 02:25:19;;;;;;;15.65;5.20;;;;;;;22.32;50.14;92922.00;4804812;29;20043;-76
2022/07/21 02:27:45;;;;;;;8.23;5.35;;;;;;;22.32;50.18;92921.25;4806579;29;20383;-76
2022/07/21 02:30:13;;;;;;;10.73;5.10;;;;;;;22.33;49.94;92920.13;4806498;29;20102;-76
2022/07/21 02:32:39;;;;;;;9.50;5.22;;;;;;;22.30;49.86;92916.25;4806509;29;20072;-76
2022/07/21 02:35:05;;;;;;;10.57;5.50;;;;;;;22.29;49.80;92909.38;4791184;29;20058;-76
2022/07/21 02:37:30;;;;;;;10.73;4.80;;;;;;;22.29;49.85;92919.25;4806576;29;20034;-76
2022/07/21 02:39:56;;;;;;;8.57;5.18;;;;;;;22.28;49.87;92915.81;4805676;29;20039;-76
2022/07/21 02:42:22;;;;;;;11.65;4.78;;;;;;;22.28;49.75;92920.41;4790227;29;20069;-76
2022/07/21 02:44:47;;;;;;;7.72;5.03;;;;;;;22.27;49.60;92916.97;4806090;29;20410;-76
2022/07/21 02:47:13;;;;;;;7.50;4.60;;;;;;;22.26;49.65;92907.41;4761263;30;20051;-76
2022/07/21 02:49:39;;;;;;;11.00;4.78;;;;;;;22.24;49.83;92910.41;4771763;29;20029;-77
2022/07/21 02:52:05;;;;;;;15.98;5.03;;;;;;;22.23;49.92;92900.09;4771729;30;20039;-76
2022/07/21 02:54:32;;;;;;;10.98;5.57;;;;;;;22.21;49.99;92897.00;4788927;29;20096;-76
2022/07/21 02:56:57;;;;;;;8.90;4.80;;;;;;;22.21;50.05;92897.00;4788531;29;20561;-77
2022/07/21 02:59:23;;;;;;;9.10;4.88;;;;;;;22.21;49.90;92899.66;4806713;29;20050;-76
2022/07/21 03:01:48;;;;;;;13.82;5.22;;;;;;;22.16;50.04;92895.38;4775328;30;20414;-76
2022/07/21 03:04:14;;;;;;;10.27;5.10;;;;;;;22.14;50.00;92894.94;4787691;30;20043;-76
2022/07/21 03:06:42;;;;;;;9.95;5.20;;;;;;;22.12;50.22;92891.84;4790524;29;20115;-76
2022/07/21 03:09:09;;;;;;;7.55;5.10;;;;;;;22.09;50.23;92894.44;4789511;29;20593;-76
2022/07/21 03:11:35;;;;;;;8.93;4.93;;;;;;;22.06;50.51;92895.13;4804850;29;20100;-76
2022/07/21 03:14:01;;;;;;;8.50;4.90;;;;;;;22.01;50.73;92888.19;4805733;29;20054;-76
2022/07/21 03:16:27;;;;;;;10.55;4.88;;;;;;;21.99;50.90;92895.75;4789752;29;20414;-76
2022/07/21 03:18:52;;;;;;;8.73;5.07;;;;;;;21.92;50.71;92885.69;4787956;29;20039;-76
2022/07/21 03:21:18;;;;;;;7.72;4.70;;;;;;;21.91;51.01;92886.81;4765060;30;20056;-76
2022/07/21 03:23:45;;;;;;;11.88;5.43;;;;;;;21.85;52.16;92884.78;4753215;30;20051;-76
2022/07/21 03:26:15;;;;;;;14.93;6.15;;;;;;;21.80;52.99;92885.81;4769156;30;20098;-75
2022/07/21 03:28:42;;;;;;;8.48;4.70;;;;;;;21.75;52.64;92880.72;4780970;29;20039;-76
2022/07/21 03:31:08;;;;;;;11.25;5.25;;;;;;;21.70;52.52;92884.44;4784905;30;20051;-76
2022/07/21 03:33:34;;;;;;;9.55;5.55;;;;;;;21.66;53.05;92880.16;4773978;30;20104;-75
2022/07/21 03:36:01;;;;;;;11.73;5.03;;;;;;;21.61;53.13;92887.28;4770438;29;21040;-76
2022/07/21 03:38:27;;;;;;;11.50;5.15;;;;;;;21.57;53.04;92889.09;4784739;30;20092;-76
2022/07/21 03:40:53;;;;;;;7.95;5.05;;;;;;;21.55;53.29;92893.22;4770754;30;20043;-76
2022/07/21 03:43:19;;;;;;;13.93;5.45;;;;;;;21.52;53.54;92888.56;4767647;30;20042;-75
2022/07/21 03:45:45;;;;;;;11.30;5.20;;;;;;;21.49;53.60;92905.25;4754628;30;20130;-76
2022/07/21 03:48:11;;;;;;;12.93;5.43;;;;;;;21.46;53.83;92897.94;4752971;30;20114;-77
2022/07/21 03:50:40;;;;;;;14.65;5.50;;;;;;;21.42;53.99;92898.63;4759482;30;20098;-77
2022/07/21 03:53:06;;;;;;;11.45;5.43;;;;;;;21.41;53.61;92899.75;4795442;29;20031;-77
2022/07/21 03:55:33;;;;;;;11.88;5.70;;;;;;;21.38;53.88;92899.63;4781484;29;20062;-76
2022/07/21 03:58:01;;;;;;;9.55;5.00;;;;;;;21.36;53.93;92899.19;4774177;30;20044;-77
2022/07/21 04:00:34;;;;;;;10.40;5.03;;;;;;;21.33;54.20;92908.66;4798747;29;20498;-77
2022/07/21 04:03:00;;;;;;;10.20;5.10;;;;;;;21.32;54.34;92901.78;4762485;30;20047;-77
2022/07/21 04:05:27;;;;;;;12.13;5.07;;;;;;;21.31;54.08;92900.22;4768821;30;20376;-77
2022/07/21 04:07:53;;;;;;;12.65;5.70;;;;;;;21.32;54.25;92901.00;4779492;30;20055;-77
2022/07/21 04:10:21;;;;;;;14.68;5.22;;;;;;;21.31;54.15;92904.78;4786216;30;20513;-77
2022/07/21 04:12:48;;;;;;;13.10;5.13;;;;;;;21.31;54.54;92905.56;4770205;30;20032;-76
2022/07/21 04:15:14;;;;;;;9.90;5.15;;;;;;;21.32;54.34;92912.44;4786315;30;20502;-76
2022/07/21 04:17:40;;;;;;;9.75;5.63;;;;;;;21.30;54.99;92908.56;4778263;30;20549;-77
2022/07/21 04:20:08;;;;;;;9.50;5.45;;;;;;;21.32;55.38;92912.44;4778289;30;20185;-77
2022/07/21 04:22:34;;;;;;;15.80;5.47;;;;;;;21.33;55.77;92908.66;4767007;30;20120;-77
2022/07/21 04:24:59;;;;;;;12.00;6.22;;;;;;;21.35;55.76;92909.09;4770901;30;20043;-77
2022/07/21 04:27:25;;;;;;;9.52;6.03;;;;;;;21.37;56.19;92916.75;4780240;29;20418;-77
2022/07/21 04:29:51;;;;;;;13.13;5.55;;;;;;;21.38;56.05;92905.72;4774000;29;20036;-77
2022/07/21 04:32:17;;;;;;;12.23;5.53;;;;;;;21.42;56.29;92911.94;4799544;29;21625;-76
2022/07/21 04:34:42;;;;;;;12.57;6.07;;;;;;;21.45;56.43;92909.72;4768438;29;20054;-76
2022/07/21 04:37:08;;;;;;;13.15;6.68;;;;;;;21.50;56.75;92909.44;4781002;29;20043;-77
2022/07/21 04:39:33;;;;;;;11.85;6.20;;;;;;;21.53;56.71;92912.22;4783225;30;20122;-77
2022/07/21 04:41:59;;;;;;;10.70;6.22;;;;;;;21.56;56.91;92908.09;4781427;29;20040;-77
2022/07/21 04:44:25;;;;;;;10.48;5.65;;;;;;;21.59;57.09;92904.72;4777830;29;20045;-76
2022/07/21 04:46:50;;;;;;;9.45;5.90;;;;;;;21.63;57.09;92918.91;4775599;30;20564;-77
2022/07/21 04:49:16;;;;;;;11.43;5.93;;;;;;;21.68;57.16;92913.31;4779944;30;20043;-77
2022/07/21 04:51:42;;;;;;;15.90;6.10;;;;;;;21.72;57.25;92908.84;4776528;30;20514;-76
2022/07/21 04:54:08;;;;;;;13.07;6.30;;;;;;;21.74;57.81;92917.25;4763154;30;20426;-76
2022/07/21 04:56:34;;;;;;;15.32;6.03;;;;;;;21.75;57.80;92918.03;4784485;30;20066;-76
2022/07/21 04:59:00;;;;;;;9.18;5.78;;;;;;;21.80;57.62;92921.22;4775611;29;20193;-77
2022/07/21 05:01:26;;;;;;;10.60;6.35;;;;;;;21.85;57.82;92919.41;4768273;30;20502;-76
2022/07/21 05:03:51;;;;;;;11.20;6.80;;;;;;;21.91;57.92;92918.00;4773821;29;20039;-76
2022/07/21 05:06:18;;;;;;;17.88;7.82;;;;;;;21.92;58.93;92924.91;4772783;30;20035;-76
2022/07/21 05:08:44;;;;;;;19.40;8.35;;;;;;;21.92;58.80;92919.56;4770636;30;20050;-77
2022/07/21 05:11:09;;;;;;;21.73;8.27;;;;;;;21.98;58.41;92926.97;4773508;29;20415;-76
2022/07/21 05:13:35;;;;;;;17.73;8.20;;;;;;;22.00;58.58;92923.97;4765839;30;20505;-76
2022/07/21 05:16:01;;;;;;;15.80;7.00;;;;;;;22.03;58.46;92925.91;4779206;29;20781;-75
2022/07/21 05:18:26;;;;;;;13.35;6.75;;;;;;;22.05;58.33;92929.03;4763433;30;20032;-75
2022/07/21 05:20:52;;;;;;;14.88;8.07;;;;;;;22.05;59.51;92929.03;4773492;29;20070;-76
2022/07/21 05:23:18;;;;;;;13.10;7.30;;;;;;;22.07;59.09;92934.00;4782225;30;20039;-75
2022/07/21 05:25:43;;;;;;;12.00;6.72;;;;;;;22.07;59.66;92932.09;4772368;29;20054;-75
2022/07/21 05:28:09;;;;;;;14.07;7.32;;;;;;;22.10;60.27;92923.41;4800427;29;20122;-75
2022/07/21 05:30:35;;;;;;;13.05;6.55;;;;;;;22.13;60.63;92933.38;4782073;30;20332;-76
2022/07/21 05:33:01;;;;;;;14.23;6.65;;;;;;;22.14;61.45;92929.59;4788218;29;20150;-75
2022/07/21 05:35:27;;;;;;;15.35;7.10;;;;;;;22.17;61.07;92933.47;4782998;29;20358;-78
2022/07/21 05:37:53;;;;;;;15.10;7.63;;;;;;;22.20;60.90;92938.09;4758898;29;20438;-76
2022/07/21 05:40:18;;;;;;;11.55;6.95;;;;;;;22.24;60.99;92928.31;4782908;29;20409;-75
2022/07/21 05:42:44;;;;;;;8.93;6.38;;;;;;;22.30;61.61;92931.50;4767905;29;20039;-75
2022/07/21 05:45:10;;;;;;;13.32;6.60;;;;;;;22.34;61.28;92935.00;4769124;30;20043;-75
2022/07/21 05:47:35;;;;;;;15.25;6.60;;;;;;;22.39;60.75;92934.72;4768578;29;20043;-75
2022/07/21 05:50:01;;;;;;;14.57;6.47;;;;;;;22.47;60.52;92931.06;4798778;29;21116;-76
2022/07/21 05:52:27;;;;;;;15.02;6.30;;;;;;;22.50;61.10;92929.63;4785475;29;20126;-75
2022/07/21 05:54:53;;;;;;;10.20;6.47;;;;;;;22.66;61.37;92933.00;4801807;29;20046;-75
2022/07/21 05:57:19;;;;;;;10.18;6.70;;;;;;;22.71;61.21;92931.94;4791363;29;20117;-75
2022/07/21 05:59:45;;;;;;;9.80;6.80;;;;;;;22.75;61.09;92927.47;4797113;29;20049;-75
2022/07/21 06:02:10;;;;;;;13.13;6.90;;;;;;;22.78;61.21;92937.41;4772595;30;20053;-75
2022/07/21 06:04:36;;;;;;;11.05;6.43;;;;;;;22.77;61.63;92941.22;4772185;29;20575;-76
2022/07/21 06:07:02;;;;;;;10.65;6.53;;;;;;;22.81;61.25;92939.41;4773670;30;20046;-76
2022/07/21 06:09:28;;;;;;;11.45;7.10;;;;;;;22.80;61.18;92938.59;4796956;29;20070;-76
2022/07/21 06:11:53;;;;;;;11.48;7.15;;;;;;;22.80;61.48;92943.19;4798979;29;20039;-76
2022/07/21 06:14:19;;;;;;;10.68;6.97;;;;;;;22.79;61.73;92941.66;4806326;29;20069;-75
2022/07/21 06:16:45;;;;;;;10.48;6.85;;;;;;;22.79;62.00;92944.31;4775172;30;20054;-77
2022/07/21 06:19:11;;;;;;;12.35;7.15;;;;;;;22.86;62.17;92952.47;4806679;29;20105;-76
2022/07/21 06:21:36;;;;;;;13.13;6.97;;;;;;;22.89;62.18;92949.06;4808617;29;20088;-77
2022/07/21 06:24:02;;;;;;;14.23;6.75;;;;;;;22.98;61.22;92938.97;4800942;29;20103;-77
2022/07/21 06:26:28;;;;;;;11.20;6.65;;;;;;;23.15;60.74;92945.78;4772870;30;20395;-77
2022/07/21 06:28:54;;;;;;;9.30;6.43;;;;;;;23.34;60.20;92944.97;4789493;30;20511;-77
2022/07/21 06:31:20;;;;;;;12.32;7.13;;;;;;;23.82;59.91;92947.34;4789507;29;20614;-77
2022/07/21 06:33:45;;;;;;;16.42;7.15;;;;;;;24.18;58.68;92948.66;4790367;29;20126;-77
2022/07/21 06:36:11;;;;;;;15.43;7.00;;;;;;;24.21;57.73;92952.53;4793107;29;20034;-78
2022/07/21 06:38:36;;;;;;;15.95;6.93;;;;;;;24.22;58.18;92948.72;4794643;29;20047;-76
2022/07/21 06:41:02;;;;;;;12.07;6.60;;;;;;;24.21;57.41;92953.28;4789363;29;20047;-76
2022/07/21 06:43:28;;;;;;;13.70;6.85;;;;;;;24.28;57.78;92952.63;4792032;29;20050;-76
2022/07/21 06:45:54;;;;;;;10.15;7.13;;;;;;;24.34;58.05;92955.75;4794775;29;20188;-76
2022/07/21 06:48:21;;;;;;;12.77;6.90;;;;;;;24.36;58.15;92950.81;4788991;29;20113;-76
2022/07/21 06:50:47;;;;;;;22.60;7.25;;;;;;;24.42;58.22;92947.47;4788174;29;20073;-76
2022/07/21 06:53:13;;;;;;;15.65;6.85;;;;;;;24.57;58.12;92956.50;4803047;29;20116;-76
2022/07/21 06:55:40;;;;;;;26.65;7.85;;;;;;;24.69;58.67;92961.59;4804585;29;20088;-77
2022/07/21 06:58:17;;;;;;;17.95;6.97;;;;;;;24.88;58.40;92955.34;4806259;29;20035;-77
2022/07/21 07:00:47;;;;;;;14.98;6.95;;;;;;;25.49;57.54;92947.25;4803264;29;20050;-77
2022/07/21 07:03:13;;;;;;;12.98;6.95;;;;;;;25.74;55.53;92956.28;4778581;30;20047;-77
2022/07/21 07:05:39;;;;;;;23.63;7.43;;;;;;;25.96;53.70;92951.88;4786791;29;20088;-77
2022/07/21 07:08:05;;;;;;;16.23;7.38;;;;;;;26.07;52.03;92951.19;4771823;30;20055;-77
2022/07/21 07:10:31;;;;;;;54.05;11.23;;;;;;;26.16;52.06;92955.09;4787480;29;20039;-77
2022/07/21 07:12:57;;;;;;;55.13;11.80;;;;;;;26.21;54.28;92958.56;4788788;29;20039;-77
2022/07/21 07:15:23;;;;;;;23.15;8.70;;;;;;;26.08;53.98;92958.09;4787951;29;20038;-77
2022/07/21 07:17:50;;;;;;;15.23;8.25;;;;;;;25.99;54.61;92960.34;4771817;30;20038;-78
2022/07/21 07:20:15;;;;;;;20.08;9.07;;;;;;;26.00;55.09;92959.94;4771323;29;20050;-77
2022/07/21 07:22:41;;;;;;;33.88;9.88;;;;;;;26.11;54.66;92958.13;4788355;29;20498;-77
2022/07/21 07:25:07;;;;;;;19.42;9.18;;;;;;;26.11;54.19;92955.44;4795851;29;20047;-77
2022/07/21 07:27:33;;;;;;;18.13;9.05;;;;;;;26.35;54.38;92962.13;4790741;29;20047;-77
2022/07/21 07:29:58;;;;;;;16.02;9.02;;;;;;;26.38;52.46;92964.03;4789477;30;20035;-79
2022/07/21 07:32:24;;;;;;;15.70;9.10;;;;;;;26.38;52.83;92969.41;4790660;30;20106;-78
2022/07/21 07:34:49;;;;;;;14.38;9.18;;;;;;;26.44;52.76;92964.47;4781152;29;20039;-78
2022/07/21 07:37:15;;;;;;;16.67;10.65;;;;;;;26.42;54.92;92968.69;4793471;29;20047;-78
2022/07/21 07:39:41;;;;;;;18.27;10.40;;;;;;;26.24;53.17;92966.66;4803132;29;20039;-78
2022/07/21 07:42:07;;;;;;;17.20;10.00;;;;;;;26.51;52.70;92963.75;4773372;29;20480;-78
2022/07/21 07:44:34;;;;;;;21.88;9.93;;;;;;;26.75;52.96;92960.47;4796029;29;20046;-78
2022/07/21 07:47:01;;;;;;;29.55;10.13;;;;;;;26.79;51.52;92961.25;4806866;29;20035;-78
2022/07/21 07:49:29;;;;;;;15.93;10.70;;;;;;;27.19;50.92;92962.16;4808813;29;20533;-77
2022/07/21 07:51:55;;;;;;;21.55;10.68;;;;;;;27.17;51.44;92959.09;4790976;29;20078;-77
2022/07/21 07:54:21;;;;;;;16.08;10.40;;;;;;;27.24;50.68;92966.44;4783505;29;20110;-77
2022/07/21 07:56:47;;;;;;;16.52;10.80;;;;;;;26.87;52.45;92950.53;4770691;30;20474;-77
2022/07/21 07:59:12;;;;;;;16.55;10.82;;;;;;;27.20;51.48;92958.38;4770998;30;20118;-78
2022/07/21 08:01:38;;;;;;;21.60;11.48;;;;;;;27.44;50.58;92961.50;4786620;30;20051;-77
2022/07/21 08:04:14;;;;;;;22.70;10.70;;;;;;;27.51;50.49;92958.81;4774383;29;20418;-79
2022/07/21 08:06:41;;;;;;;17.52;11.18;;;;;;;27.40;49.30;92955.34;4774026;30;20042;-77
2022/07/21 08:09:07;;;;;;;26.40;10.55;;;;;;;27.55;49.79;92962.28;4787195;29;20490;-77
2022/07/21 08:11:33;;;;;;;20.15;11.15;;;;;;;27.54;50.13;92954.63;4772413;30;20055;-79
2022/07/21 08:13:59;;;;;;;21.80;11.30;;;;;;;27.29;50.77;92954.53;4791829;29;20061;-77
2022/07/21 08:16:24;;;;;;;18.63;12.35;;;;;;;27.18;52.37;92955.25;4789113;29;20129;-77
2022/07/21 08:18:50;;;;;;;25.23;13.30;;;;;;;27.33;50.99;92956.09;4804486;29;20038;-77
2022/07/21 08:21:15;;;;;;;24.95;12.20;;;;;;;27.51;51.70;92961.50;4801959;29;20042;-77
2022/07/21 08:23:41;;;;;;;54.45;14.32;;;;;;;27.30;51.40;92958.78;4781174;29;20043;-77
2022/07/21 08:26:07;;;;;;;39.90;13.93;;;;;;;27.33;51.13;92955.31;4769998;29;20040;-76
2022/07/21 08:28:33;;;;;;;144.95;20.80;;;;;;;27.35;49.57;92959.16;4771697;29;20039;-75
2022/07/21 08:30:58;;;;;;;27.98;12.70;;;;;;;27.51;50.56;92961.50;4803633;29;20121;-76
2022/07/21 08:33:24;;;;;;;19.80;12.13;;;;;;;27.24;50.74;92957.59;4769617;30;20046;-76
2022/07/21 08:35:49;;;;;;;25.88;12.52;;;;;;;27.14;52.61;92957.16;4785943;29;20042;-76
2022/07/21 08:38:18;;;;;;;24.05;12.48;;;;;;;27.04;50.54;92955.19;4799706;29;20050;-76
2022/07/21 08:40:45;;;;;;;21.60;13.82;;;;;;;26.99;52.30;92955.56;4803629;29;20514;-76
2022/07/21 08:43:13;;;;;;;24.55;13.65;;;;;;;27.26;52.57;92960.69;4802461;29;20030;-76
2022/07/21 08:45:39;;;;;;;20.75;12.30;;;;;;;27.07;49.44;92954.47;4797431;29;20057;-76
2022/07/21 08:48:06;;;;;;;22.55;12.57;;;;;;;27.28;51.64;92950.31;4772219;30;20043;-77
2022/07/21 08:50:37;;;;;;;23.42;13.40;;;;;;;27.26;50.07;92958.00;4772061;30;20448;-77
2022/07/21 08:53:04;;;;;;;20.00;11.63;;;;;;;27.38;46.34;92955.75;4804068;29;20050;-76
2022/07/21 08:55:31;;;;;;;24.33;11.25;;;;;;;27.70;46.39;92954.25;4807452;29;20047;-77
2022/07/21 08:57:57;;;;;;;18.60;12.15;;;;;;;27.97;43.38;92960.84;4790530;29;20030;-77
2022/07/21 09:00:22;;;;;;;19.70;11.43;;;;;;;28.16;44.22;92948.91;4807982;29;20054;-77
2022/07/21 09:02:48;;;;;;;26.02;11.70;;;;;;;28.26;45.08;92955.44;4795060;29;20091;-78
2022/07/21 09:05:16;;;;;;;18.85;11.63;;;;;;;28.44;44.97;92960.81;4808908;29;20053;-78
2022/07/21 09:07:50;;;;;;;20.65;11.25;;;;;;;28.47;44.04;92962.75;4782430;30;20035;-78
2022/07/21 09:10:21;;;;;;;20.27;12.68;;;;;;;28.39;42.38;92953.09;4796328;29;20046;-79
2022/07/21 09:12:52;;;;;;;19.20;11.43;;;;;;;28.22;42.16;92960.81;4788432;30;20061;-79
2022/07/21 09:15:20;;;;;;;24.00;11.77;;;;;;;28.14;41.81;92963.91;4786321;29;20038;-79
2022/07/21 09:17:46;;;;;;;20.17;12.55;;;;;;;28.19;42.47;92966.19;4801276;29;20062;-78
2022/07/21 09:20:24;;;;;;;20.45;12.43;;;;;;;28.20;42.77;92963.13;4800445;29;20054;-79
2022/07/21 09:23:08;;;;;;;22.42;11.85;;;;;;;28.33;42.18;92965.44;4794016;29;20104;-79
2022/07/21 09:25:46;;;;;;;26.33;12.43;;;;;;;28.48;43.63;92964.28;4789423;30;20042;-78
2022/07/21 09:28:19;;;;;;;19.15;12.90;;;;;;;28.92;41.12;92963.00;4794907;29;20042;-79
2022/07/21 09:30:50;;;;;;;24.73;11.73;;;;;;;29.16;38.63;92960.63;4796767;29;20038;-79
2022/07/21 09:33:33;;;;;;;16.80;10.45;;;;;;;29.35;35.97;92964.78;4798428;29;20035;-79
2022/07/21 09:36:05;;;;;;;18.10;9.32;;;;;;;29.23;36.44;92961.38;4823160;29;20053;-79
2022/07/21 09:38:34;;;;;;;17.02;9.90;;;;;;;29.37;36.41;92965.16;4809545;29;20054;-77
2022/07/21 09:41:15;;;;;;;18.08;10.43;;;;;;;29.42;37.10;92962.06;4792276;29;20089;-77
2022/07/21 09:43:45;;;;;;;21.95;10.38;;;;;;;29.35;36.16;92967.50;4807929;29;20046;-77
2022/07/21 09:46:19;;;;;;;18.20;11.70;;;;;;;29.32;37.75;92966.34;4796686;29;20039;-76
2022/07/21 09:48:47;;;;;;;21.60;11.82;;;;;;;29.39;39.57;92962.84;4791107;29;20506;-77
2022/07/21 09:51:23;;;;;;;23.92;12.20;;;;;;;29.57;40.99;92963.50;4808698;29;20095;-77
2022/07/21 09:53:54;;;;;;;19.15;11.82;;;;;;;29.39;41.63;92949.38;4805362;29;20403;-77
2022/07/21 09:56:21;;;;;;;19.35;12.07;;;;;;;29.11;42.23;92953.72;4788382;29;20046;-77
2022/07/21 09:58:49;;;;;;;20.77;11.82;;;;;;;29.42;41.66;92956.66;4783631;30;20072;-76
2022/07/21 10:01:15;;;;;;;20.45;11.38;;;;;;;29.15;39.37;92954.47;4779066;29;20088;-77
2022/07/21 10:03:45;;;;;;;20.50;11.77;;;;;;;29.20;39.97;92950.59;4800139;29;20039;-78
2022/07/21 10:06:12;;;;;;;22.17;11.55;;;;;;;29.29;40.08;92950.19;4782122;29;20172;-76
2022/07/21 10:08:38;;;;;;;23.35;11.13;;;;;;;29.24;39.13;92957.50;4792152;30;20039;-77
2022/07/21 10:11:04;;;;;;;21.05;10.98;;;;;;;29.19;38.48;92949.84;4793720;29;20050;-78
2022/07/21 10:13:30;;;;;;;22.23;11.25;;;;;;;29.47;39.44;92959.72;4802985;29;20045;-78
2022/07/21 10:15:57;;;;;;;21.58;11.45;;;;;;;29.74;38.20;92953.03;4791764;30;20114;-77
2022/07/21 10:18:26;;;;;;;22.00;11.55;;;;;;;29.65;36.23;92956.13;4791480;30;20387;-75
2022/07/21 10:20:59;;;;;;;19.42;10.90;;;;;;;29.31;37.80;92945.94;4774162;29;20047;-76
2022/07/21 10:23:37;;;;;;;21.42;9.88;;;;;;;28.91;38.70;92949.94;4792730;29;20059;-77
2022/07/21 10:26:05;;;;;;;20.52;10.63;;;;;;;29.22;39.23;92949.06;4799600;29;20095;-75
2022/07/21 10:28:31;;;;;;;20.63;10.82;;;;;;;29.58;38.20;92943.47;4774564;30;20034;-76
2022/07/21 10:30:59;;;;;;;18.73;10.65;;;;;;;29.50;38.13;92942.00;4773432;30;20092;-76
2022/07/21 10:33:45;;;;;;;20.33;10.55;;;;;;;29.63;37.86;92940.38;4801386;29;20053;-77
2022/07/21 10:36:28;;;;;;;15.80;10.73;;;;;;;29.83;36.63;92943.31;4797846;29;20532;-76
2022/07/21 10:39:06;;;;;;;19.23;9.77;;;;;;;29.74;36.52;92950.34;4802011;29;20039;-76
2022/07/21 10:41:38;;;;;;;20.10;9.90;;;;;;;29.55;36.77;92944.25;4793371;29;20043;-76
2022/07/21 10:44:27;;;;;;;21.65;11.05;;;;;;;29.75;36.83;92941.84;4806169;29;20467;-77
2022/07/21 10:47:24;;;;;;;19.98;10.85;;;;;;;29.89;36.96;92946.38;4789720;29;20060;-75
2022/07/21 10:49:59;;;;;;;24.77;9.90;;;;;;;30.20;36.00;92935.72;4772626;29;20050;-77
2022/07/21 10:52:40;;;;;;;17.02;9.88;;;;;;;30.24;33.86;92936.44;4760753;30;20066;-76
2022/07/21 10:55:28;;;;;;;16.05;9.48;;;;;;;29.95;34.15;92939.41;4775681;29;20039;-76
2022/07/21 10:58:13;;;;;;;18.10;9.57;;;;;;;29.99;34.50;92940.13;4789792;29;20039;-76
2022/07/21 11:01:00;;;;;;;18.52;9.77;;;;;;;29.90;33.75;92937.09;4790632;29;20043;-76
2022/07/21 11:03:29;;;;;;;18.67;10.13;;;;;;;29.78;34.22;92935.66;4781151;30;20035;-77
2022/07/21 11:06:09;;;;;;;15.82;9.10;;;;;;;30.03;34.80;92927.34;4797754;29;20027;-78
2022/07/21 11:08:44;;;;;;;24.65;10.73;;;;;;;30.37;34.52;92931.34;4792550;29;20046;-77
2022/07/21 11:11:25;;;;;;;17.42;9.90;;;;;;;30.17;35.01;92929.16;4807758;29;20502;-77
2022/07/21 11:14:10;;;;;;;44.53;11.35;;;;;;;30.04;35.37;92930.84;4779577;30;20047;-77
2022/07/21 11:16:41;;;;;;;23.45;10.80;;;;;;;30.07;35.59;92930.03;4785863;29;20051;-76
2022/07/21 11:19:31;;;;;;;16.25;9.88;;;;;;;30.32;35.12;92919.03;4807961;29;20130;-77
2022/07/21 11:22:12;;;;;;;19.23;11.50;;;;;;;30.28;34.39;92923.72;4801777;29;20054;-77
2022/07/21 11:24:42;;;;;;;17.40;10.32;;;;;;;30.35;34.89;92918.22;4798338;29;20046;-77
2022/07/21 11:27:14;;;;;;;15.70;10.55;;;;;;;30.30;35.15;92921.38;4774423;30;20374;-76
2022/07/21 11:29:42;;;;;;;24.95;10.40;;;;;;;30.35;34.14;92923.63;4800244;29;20035;-76